sensor_id;sensor_type;location;lat;lon;timestamp;P1;durP1;ratioP1;P2;durP2;ratioP2
13571;SDS011;6857;53.484;10.216;2024-02-21T00:00:37;32.03;;;14.13;;
13571;SDS011;6857;53.484;10.216;2024-02-21T00:03:03;30.70;;;13.70;;
13571;SDS011;6857;53.484;10.216;2024-02-21T00:05:29;36.80;;;15.07;;
13571;SDS011;6857;53.484;10.216;2024-02-21T00:07:55;69.43;;;21.30;;
13571;SDS011;6857;53.484;10.216;2024-02-21T00:10:21;32.73;;;13.77;;
13571;SDS011;6857;53.484;10.216;2024-02-21T00:12:46;34.33;;;14.93;;
13571;SDS011;6857;53.484;10.216;2024-02-21T00:15:12;26.37;;;14.37;;
13571;SDS011;6857;53.484;10.216;2024-02-21T00:17:38;35.10;;;14.37;;
13571;SDS011;6857;53.484;10.216;2024-02-21T00:20:03;33.60;;;14.60;;
13571;SDS011;6857;53.484;10.216;2024-02-21T00:22:29;28.53;;;14.27;;
13571;SDS011;6857;53.484;10.216;2024-02-21T00:24:56;33.27;;;14.90;;
13571;SDS011;6857;53.484;10.216;2024-02-21T00:27:23;28.63;;;15.23;;
13571;SDS011;6857;53.484;10.216;2024-02-21T00:29:48;33.50;;;15.60;;
13571;SDS011;6857;53.484;10.216;2024-02-21T00:32:14;31.60;;;15.20;;
13571;SDS011;6857;53.484;10.216;2024-02-21T00:34:39;30.30;;;14.43;;
13571;SDS011;6857;53.484;10.216;2024-02-21T00:37:05;26.63;;;15.17;;
13571;SDS011;6857;53.484;10.216;2024-02-21T00:39:31;29.57;;;14.77;;
13571;SDS011;6857;53.484;10.216;2024-02-21T00:41:56;27.77;;;14.77;;
13571;SDS011;6857;53.484;10.216;2024-02-21T00:44:22;27.40;;;14.37;;
13571;SDS011;6857;53.484;10.216;2024-02-21T00:46:47;33.13;;;15.60;;
13571;SDS011;6857;53.484;10.216;2024-02-21T00:49:13;30.40;;;14.60;;
13571;SDS011;6857;53.484;10.216;2024-02-21T00:51:38;33.63;;;14.70;;
13571;SDS011;6857;53.484;10.216;2024-02-21T00:54:04;29.23;;;15.73;;
13571;SDS011;6857;53.484;10.216;2024-02-21T00:56:29;30.60;;;14.97;;
13571;SDS011;6857;53.484;10.216;2024-02-21T00:58:55;26.73;;;14.93;;
13571;SDS011;6857;53.484;10.216;2024-02-21T01:01:24;30.00;;;16.00;;
13571;SDS011;6857;53.484;10.216;2024-02-21T01:03:50;32.27;;;15.90;;
13571;SDS011;6857;53.484;10.216;2024-02-21T01:06:18;29.83;;;15.53;;
13571;SDS011;6857;53.484;10.216;2024-02-21T01:08:45;27.00;;;15.40;;
13571;SDS011;6857;53.484;10.216;2024-02-21T01:11:11;27.77;;;15.33;;
13571;SDS011;6857;53.484;10.216;2024-02-21T01:13:37;28.33;;;15.67;;
13571;SDS011;6857;53.484;10.216;2024-02-21T01:16:02;31.17;;;16.07;;
13571;SDS011;6857;53.484;10.216;2024-02-21T01:18:28;29.13;;;16.40;;
13571;SDS011;6857;53.484;10.216;2024-02-21T01:20:54;32.97;;;16.90;;
13571;SDS011;6857;53.484;10.216;2024-02-21T01:23:19;30.90;;;16.47;;
13571;SDS011;6857;53.484;10.216;2024-02-21T01:25:45;32.57;;;17.10;;
13571;SDS011;6857;53.484;10.216;2024-02-21T01:28:10;36.70;;;16.40;;
13571;SDS011;6857;53.484;10.216;2024-02-21T01:30:36;35.23;;;18.60;;
13571;SDS011;6857;53.484;10.216;2024-02-21T01:33:02;32.77;;;17.00;;
13571;SDS011;6857;53.484;10.216;2024-02-21T01:35:27;32.57;;;17.93;;
13571;SDS011;6857;53.484;10.216;2024-02-21T01:37:53;33.07;;;16.87;;
13571;SDS011;6857;53.484;10.216;2024-02-21T01:40:18;31.90;;;16.97;;
13571;SDS011;6857;53.484;10.216;2024-02-21T01:42:44;37.27;;;18.10;;
13571;SDS011;6857;53.484;10.216;2024-02-21T01:45:10;27.30;;;16.77;;
13571;SDS011;6857;53.484;10.216;2024-02-21T01:47:36;35.77;;;17.80;;
13571;SDS011;6857;53.484;10.216;2024-02-21T01:50:02;36.13;;;18.17;;
13571;SDS011;6857;53.484;10.216;2024-02-21T01:52:29;32.73;;;17.20;;
13571;SDS011;6857;53.484;10.216;2024-02-21T01:54:55;27.57;;;16.13;;
13571;SDS011;6857;53.484;10.216;2024-02-21T01:57:22;29.03;;;16.47;;
13571;SDS011;6857;53.484;10.216;2024-02-21T01:59:48;25.73;;;16.00;;
13571;SDS011;6857;53.484;10.216;2024-02-21T02:02:14;30.93;;;17.10;;
13571;SDS011;6857;53.484;10.216;2024-02-21T02:04:41;29.77;;;16.80;;
13571;SDS011;6857;53.484;10.216;2024-02-21T02:07:07;26.63;;;15.87;;
13571;SDS011;6857;53.484;10.216;2024-02-21T02:09:33;30.23;;;16.67;;
13571;SDS011;6857;53.484;10.216;2024-02-21T02:11:59;35.07;;;16.13;;
13571;SDS011;6857;53.484;10.216;2024-02-21T02:14:26;38.00;;;17.93;;
13571;SDS011;6857;53.484;10.216;2024-02-21T02:16:51;31.40;;;17.10;;
13571;SDS011;6857;53.484;10.216;2024-02-21T02:19:17;29.80;;;16.03;;
13571;SDS011;6857;53.484;10.216;2024-02-21T02:21:45;29.43;;;17.43;;
13571;SDS011;6857;53.484;10.216;2024-02-21T02:24:18;33.40;;;17.47;;
13571;SDS011;6857;53.484;10.216;2024-02-21T02:26:44;33.13;;;17.07;;
13571;SDS011;6857;53.484;10.216;2024-02-21T02:29:10;33.23;;;17.47;;
13571;SDS011;6857;53.484;10.216;2024-02-21T02:31:36;34.40;;;18.00;;
13571;SDS011;6857;53.484;10.216;2024-02-21T02:34:03;36.70;;;18.27;;
13571;SDS011;6857;53.484;10.216;2024-02-21T02:36:29;34.40;;;18.67;;
13571;SDS011;6857;53.484;10.216;2024-02-21T02:38:58;32.67;;;18.93;;
13571;SDS011;6857;53.484;10.216;2024-02-21T02:41:23;36.60;;;18.53;;
13571;SDS011;6857;53.484;10.216;2024-02-21T02:43:49;38.37;;;20.10;;
13571;SDS011;6857;53.484;10.216;2024-02-21T02:46:15;39.47;;;19.70;;
13571;SDS011;6857;53.484;10.216;2024-02-21T02:48:41;44.33;;;21.13;;
13571;SDS011;6857;53.484;10.216;2024-02-21T02:51:06;39.57;;;20.77;;
13571;SDS011;6857;53.484;10.216;2024-02-21T02:53:32;47.60;;;22.43;;
13571;SDS011;6857;53.484;10.216;2024-02-21T02:55:57;40.43;;;20.60;;
13571;SDS011;6857;53.484;10.216;2024-02-21T02:58:23;40.27;;;21.17;;
13571;SDS011;6857;53.484;10.216;2024-02-21T03:00:48;37.63;;;20.70;;
13571;SDS011;6857;53.484;10.216;2024-02-21T03:03:14;40.37;;;22.87;;
13571;SDS011;6857;53.484;10.216;2024-02-21T03:05:39;39.00;;;21.17;;
13571;SDS011;6857;53.484;10.216;2024-02-21T03:08:05;46.20;;;22.70;;
13571;SDS011;6857;53.484;10.216;2024-02-21T03:10:32;38.63;;;21.13;;
13571;SDS011;6857;53.484;10.216;2024-02-21T03:12:58;43.57;;;21.87;;
13571;SDS011;6857;53.484;10.216;2024-02-21T03:15:24;48.07;;;22.47;;
13571;SDS011;6857;53.484;10.216;2024-02-21T03:17:49;38.63;;;21.67;;
13571;SDS011;6857;53.484;10.216;2024-02-21T03:20:15;41.30;;;20.93;;
13571;SDS011;6857;53.484;10.216;2024-02-21T03:22:41;39.73;;;21.37;;
13571;SDS011;6857;53.484;10.216;2024-02-21T03:25:07;46.97;;;21.20;;
13571;SDS011;6857;53.484;10.216;2024-02-21T03:27:33;37.80;;;19.93;;
13571;SDS011;6857;53.484;10.216;2024-02-21T03:29:59;37.90;;;19.93;;
13571;SDS011;6857;53.484;10.216;2024-02-21T03:32:24;37.93;;;19.93;;
13571;SDS011;6857;53.484;10.216;2024-02-21T03:34:50;40.30;;;19.60;;
13571;SDS011;6857;53.484;10.216;2024-02-21T03:37:16;35.53;;;20.13;;
13571;SDS011;6857;53.484;10.216;2024-02-21T03:39:41;37.13;;;20.00;;
13571;SDS011;6857;53.484;10.216;2024-02-21T03:42:07;37.40;;;18.87;;
13571;SDS011;6857;53.484;10.216;2024-02-21T03:44:32;34.80;;;19.10;;
13571;SDS011;6857;53.484;10.216;2024-02-21T03:46:58;38.93;;;20.23;;
13571;SDS011;6857;53.484;10.216;2024-02-21T03:49:25;34.57;;;18.60;;
13571;SDS011;6857;53.484;10.216;2024-02-21T03:51:50;37.23;;;19.10;;
13571;SDS011;6857;53.484;10.216;2024-02-21T03:54:16;34.87;;;18.73;;
13571;SDS011;6857;53.484;10.216;2024-02-21T03:56:41;39.10;;;19.17;;
13571;SDS011;6857;53.484;10.216;2024-02-21T03:59:07;32.57;;;18.07;;
13571;SDS011;6857;53.484;10.216;2024-02-21T04:01:36;37.17;;;18.30;;
13571;SDS011;6857;53.484;10.216;2024-02-21T04:04:02;32.53;;;17.93;;
13571;SDS011;6857;53.484;10.216;2024-02-21T04:06:28;30.00;;;17.97;;
13571;SDS011;6857;53.484;10.216;2024-02-21T04:08:53;32.27;;;17.93;;
13571;SDS011;6857;53.484;10.216;2024-02-21T04:11:19;36.80;;;18.53;;
13571;SDS011;6857;53.484;10.216;2024-02-21T04:13:45;34.67;;;17.63;;
13571;SDS011;6857;53.484;10.216;2024-02-21T04:16:13;40.30;;;19.20;;
13571;SDS011;6857;53.484;10.216;2024-02-21T04:18:39;37.07;;;18.53;;
13571;SDS011;6857;53.484;10.216;2024-02-21T04:21:05;33.87;;;18.33;;
13571;SDS011;6857;53.484;10.216;2024-02-21T04:23:30;40.43;;;19.33;;
13571;SDS011;6857;53.484;10.216;2024-02-21T04:25:56;35.27;;;17.20;;
13571;SDS011;6857;53.484;10.216;2024-02-21T04:28:21;35.43;;;18.50;;
13571;SDS011;6857;53.484;10.216;2024-02-21T04:30:47;33.77;;;18.20;;
13571;SDS011;6857;53.484;10.216;2024-02-21T04:33:13;33.13;;;18.50;;
13571;SDS011;6857;53.484;10.216;2024-02-21T04:35:38;33.60;;;18.50;;
13571;SDS011;6857;53.484;10.216;2024-02-21T04:38:04;35.63;;;18.40;;
13571;SDS011;6857;53.484;10.216;2024-02-21T04:40:30;33.57;;;19.13;;
13571;SDS011;6857;53.484;10.216;2024-02-21T04:42:56;38.50;;;18.93;;
13571;SDS011;6857;53.484;10.216;2024-02-21T04:45:22;36.67;;;18.90;;
13571;SDS011;6857;53.484;10.216;2024-02-21T04:47:48;36.17;;;18.77;;
13571;SDS011;6857;53.484;10.216;2024-02-21T04:50:13;34.57;;;17.13;;
13571;SDS011;6857;53.484;10.216;2024-02-21T04:52:39;35.00;;;19.13;;
13571;SDS011;6857;53.484;10.216;2024-02-21T04:55:05;37.83;;;19.33;;
13571;SDS011;6857;53.484;10.216;2024-02-21T04:57:31;37.43;;;18.93;;
13571;SDS011;6857;53.484;10.216;2024-02-21T04:59:57;35.17;;;18.23;;
13571;SDS011;6857;53.484;10.216;2024-02-21T05:02:23;35.47;;;17.73;;
13571;SDS011;6857;53.484;10.216;2024-02-21T05:04:49;34.63;;;18.83;;
13571;SDS011;6857;53.484;10.216;2024-02-21T05:07:15;35.23;;;17.83;;
13571;SDS011;6857;53.484;10.216;2024-02-21T05:09:41;30.87;;;18.27;;
13571;SDS011;6857;53.484;10.216;2024-02-21T05:12:07;35.63;;;19.17;;
13571;SDS011;6857;53.484;10.216;2024-02-21T05:14:33;36.53;;;18.43;;
13571;SDS011;6857;53.484;10.216;2024-02-21T05:16:59;33.90;;;18.73;;
13571;SDS011;6857;53.484;10.216;2024-02-21T05:19:24;35.17;;;18.40;;
13571;SDS011;6857;53.484;10.216;2024-02-21T05:21:50;32.40;;;17.47;;
13571;SDS011;6857;53.484;10.216;2024-02-21T05:24:16;29.77;;;16.67;;
13571;SDS011;6857;53.484;10.216;2024-02-21T05:26:41;31.87;;;16.87;;
13571;SDS011;6857;53.484;10.216;2024-02-21T05:29:07;31.37;;;17.23;;
13571;SDS011;6857;53.484;10.216;2024-02-21T05:34:16;27.47;;;16.13;;
13571;SDS011;6857;53.484;10.216;2024-02-21T05:36:42;26.83;;;17.23;;
13571;SDS011;6857;53.484;10.216;2024-02-21T05:39:08;30.97;;;16.60;;
13571;SDS011;6857;53.484;10.216;2024-02-21T05:41:33;27.03;;;15.97;;
13571;SDS011;6857;53.484;10.216;2024-02-21T05:43:59;27.20;;;15.93;;
13571;SDS011;6857;53.484;10.216;2024-02-21T05:46:24;29.97;;;16.13;;
13571;SDS011;6857;53.484;10.216;2024-02-21T05:48:50;29.60;;;15.00;;
13571;SDS011;6857;53.484;10.216;2024-02-21T05:51:15;28.13;;;14.93;;
13571;SDS011;6857;53.484;10.216;2024-02-21T05:53:41;24.33;;;14.83;;
13571;SDS011;6857;53.484;10.216;2024-02-21T05:56:10;25.63;;;15.20;;
13571;SDS011;6857;53.484;10.216;2024-02-21T05:58:36;26.37;;;14.57;;
13571;SDS011;6857;53.484;10.216;2024-02-21T06:01:02;21.43;;;13.53;;
13571;SDS011;6857;53.484;10.216;2024-02-21T06:03:28;23.77;;;13.07;;
13571;SDS011;6857;53.484;10.216;2024-02-21T06:05:54;21.73;;;12.93;;
13571;SDS011;6857;53.484;10.216;2024-02-21T06:08:20;24.03;;;13.53;;
13571;SDS011;6857;53.484;10.216;2024-02-21T06:10:45;21.20;;;13.00;;
13571;SDS011;6857;53.484;10.216;2024-02-21T06:13:12;20.67;;;12.90;;
13571;SDS011;6857;53.484;10.216;2024-02-21T06:15:37;19.53;;;11.37;;
13571;SDS011;6857;53.484;10.216;2024-02-21T06:18:03;19.53;;;11.73;;
13571;SDS011;6857;53.484;10.216;2024-02-21T06:20:29;17.30;;;11.50;;
13571;SDS011;6857;53.484;10.216;2024-02-21T06:22:54;21.07;;;11.40;;
13571;SDS011;6857;53.484;10.216;2024-02-21T06:25:20;16.70;;;10.80;;
13571;SDS011;6857;53.484;10.216;2024-02-21T06:27:45;17.97;;;11.97;;
13571;SDS011;6857;53.484;10.216;2024-02-21T06:30:11;19.33;;;11.10;;
13571;SDS011;6857;53.484;10.216;2024-02-21T06:32:37;21.80;;;11.17;;
13571;SDS011;6857;53.484;10.216;2024-02-21T06:35:03;16.13;;;10.27;;
13571;SDS011;6857;53.484;10.216;2024-02-21T06:37:29;19.40;;;10.93;;
13571;SDS011;6857;53.484;10.216;2024-02-21T06:39:55;16.07;;;10.07;;
13571;SDS011;6857;53.484;10.216;2024-02-21T06:42:20;14.17;;;9.57;;
13571;SDS011;6857;53.484;10.216;2024-02-21T06:44:46;14.43;;;9.97;;
13571;SDS011;6857;53.484;10.216;2024-02-21T06:47:12;16.43;;;9.43;;
13571;SDS011;6857;53.484;10.216;2024-02-21T06:49:37;16.40;;;10.40;;
13571;SDS011;6857;53.484;10.216;2024-02-21T06:52:04;15.17;;;9.20;;
13571;SDS011;6857;53.484;10.216;2024-02-21T06:54:30;15.20;;;9.97;;
13571;SDS011;6857;53.484;10.216;2024-02-21T06:56:56;16.10;;;10.00;;
13571;SDS011;6857;53.484;10.216;2024-02-21T06:59:21;15.03;;;9.87;;
13571;SDS011;6857;53.484;10.216;2024-02-21T07:01:48;14.57;;;9.17;;
13571;SDS011;6857;53.484;10.216;2024-02-21T07:04:14;13.33;;;9.20;;
13571;SDS011;6857;53.484;10.216;2024-02-21T07:06:40;13.20;;;8.77;;
13571;SDS011;6857;53.484;10.216;2024-02-21T07:09:06;12.27;;;8.37;;
13571;SDS011;6857;53.484;10.216;2024-02-21T07:11:31;14.20;;;8.97;;
13571;SDS011;6857;53.484;10.216;2024-02-21T07:13:57;14.43;;;8.93;;
13571;SDS011;6857;53.484;10.216;2024-02-21T07:16:22;15.73;;;9.80;;
13571;SDS011;6857;53.484;10.216;2024-02-21T07:18:48;12.23;;;8.63;;
13571;SDS011;6857;53.484;10.216;2024-02-21T07:21:13;11.93;;;8.50;;
13571;SDS011;6857;53.484;10.216;2024-02-21T07:23:40;15.23;;;9.27;;
13571;SDS011;6857;53.484;10.216;2024-02-21T07:26:07;14.67;;;9.43;;
13571;SDS011;6857;53.484;10.216;2024-02-21T07:28:32;13.97;;;8.90;;
13571;SDS011;6857;53.484;10.216;2024-02-21T07:30:59;15.30;;;8.93;;
13571;SDS011;6857;53.484;10.216;2024-02-21T07:33:25;13.67;;;8.90;;
13571;SDS011;6857;53.484;10.216;2024-02-21T07:35:50;15.50;;;9.63;;
13571;SDS011;6857;53.484;10.216;2024-02-21T07:38:16;14.20;;;9.27;;
13571;SDS011;6857;53.484;10.216;2024-02-21T07:40:44;13.17;;;8.27;;
13571;SDS011;6857;53.484;10.216;2024-02-21T07:43:10;14.40;;;9.23;;
13571;SDS011;6857;53.484;10.216;2024-02-21T07:45:35;11.53;;;8.27;;
13571;SDS011;6857;53.484;10.216;2024-02-21T07:48:01;12.37;;;8.60;;
13571;SDS011;6857;53.484;10.216;2024-02-21T07:50:27;10.73;;;7.13;;
13571;SDS011;6857;53.484;10.216;2024-02-21T07:52:52;11.43;;;7.77;;
13571;SDS011;6857;53.484;10.216;2024-02-21T07:55:18;11.87;;;7.60;;
13571;SDS011;6857;53.484;10.216;2024-02-21T07:57:43;11.23;;;8.07;;
13571;SDS011;6857;53.484;10.216;2024-02-21T08:00:09;9.93;;;7.33;;
13571;SDS011;6857;53.484;10.216;2024-02-21T08:02:40;8.90;;;6.43;;
13571;SDS011;6857;53.484;10.216;2024-02-21T08:05:07;11.87;;;7.10;;
13571;SDS011;6857;53.484;10.216;2024-02-21T08:07:33;9.20;;;6.43;;
13571;SDS011;6857;53.484;10.216;2024-02-21T08:09:59;9.77;;;6.47;;
13571;SDS011;6857;53.484;10.216;2024-02-21T08:12:24;9.40;;;6.50;;
13571;SDS011;6857;53.484;10.216;2024-02-21T08:14:50;9.27;;;5.83;;
13571;SDS011;6857;53.484;10.216;2024-02-21T08:17:15;8.53;;;5.73;;
13571;SDS011;6857;53.484;10.216;2024-02-21T08:19:41;6.53;;;4.97;;
13571;SDS011;6857;53.484;10.216;2024-02-21T08:22:06;8.17;;;4.97;;
13571;SDS011;6857;53.484;10.216;2024-02-21T08:24:32;8.13;;;5.87;;
13571;SDS011;6857;53.484;10.216;2024-02-21T08:26:58;7.80;;;5.00;;
13571;SDS011;6857;53.484;10.216;2024-02-21T08:29:23;7.17;;;5.47;;
13571;SDS011;6857;53.484;10.216;2024-02-21T08:31:49;7.27;;;5.20;;
13571;SDS011;6857;53.484;10.216;2024-02-21T08:34:14;9.33;;;5.47;;
13571;SDS011;6857;53.484;10.216;2024-02-21T08:36:40;7.30;;;4.90;;
13571;SDS011;6857;53.484;10.216;2024-02-21T08:39:05;7.60;;;5.00;;
13571;SDS011;6857;53.484;10.216;2024-02-21T08:41:31;6.13;;;4.63;;
13571;SDS011;6857;53.484;10.216;2024-02-21T08:43:57;7.80;;;5.10;;
13571;SDS011;6857;53.484;10.216;2024-02-21T08:46:23;8.67;;;5.90;;
13571;SDS011;6857;53.484;10.216;2024-02-21T08:48:49;9.30;;;5.33;;
13571;SDS011;6857;53.484;10.216;2024-02-21T08:51:18;7.13;;;5.40;;
13571;SDS011;6857;53.484;10.216;2024-02-21T08:53:45;8.60;;;5.50;;
13571;SDS011;6857;53.484;10.216;2024-02-21T08:56:11;6.20;;;4.53;;
13571;SDS011;6857;53.484;10.216;2024-02-21T08:58:36;6.10;;;4.30;;
13571;SDS011;6857;53.484;10.216;2024-02-21T09:01:08;8.30;;;4.83;;
13571;SDS011;6857;53.484;10.216;2024-02-21T09:03:35;9.17;;;4.27;;
13571;SDS011;6857;53.484;10.216;2024-02-21T09:06:02;9.13;;;3.73;;
13571;SDS011;6857;53.484;10.216;2024-02-21T09:08:29;11.03;;;4.40;;
13571;SDS011;6857;53.484;10.216;2024-02-21T09:10:54;8.83;;;3.93;;
13571;SDS011;6857;53.484;10.216;2024-02-21T09:13:20;12.80;;;4.60;;
13571;SDS011;6857;53.484;10.216;2024-02-21T09:15:47;10.83;;;4.90;;
13571;SDS011;6857;53.484;10.216;2024-02-21T09:18:13;11.17;;;4.43;;
13571;SDS011;6857;53.484;10.216;2024-02-21T09:20:39;11.13;;;4.30;;
13571;SDS011;6857;53.484;10.216;2024-02-21T09:23:04;14.73;;;4.93;;
13571;SDS011;6857;53.484;10.216;2024-02-21T09:25:30;7.50;;;3.60;;
13571;SDS011;6857;53.484;10.216;2024-02-21T09:27:56;5.90;;;3.30;;
13571;SDS011;6857;53.484;10.216;2024-02-21T09:30:23;8.10;;;3.47;;
13571;SDS011;6857;53.484;10.216;2024-02-21T09:32:49;8.60;;;3.23;;
13571;SDS011;6857;53.484;10.216;2024-02-21T09:35:14;7.47;;;2.87;;
13571;SDS011;6857;53.484;10.216;2024-02-21T09:37:40;7.03;;;3.07;;
13571;SDS011;6857;53.484;10.216;2024-02-21T09:40:06;7.17;;;2.90;;
13571;SDS011;6857;53.484;10.216;2024-02-21T09:42:37;7.50;;;3.20;;
13571;SDS011;6857;53.484;10.216;2024-02-21T09:45:08;8.60;;;3.50;;
13571;SDS011;6857;53.484;10.216;2024-02-21T09:50:28;8.80;;;3.67;;
13571;SDS011;6857;53.484;10.216;2024-02-21T09:52:56;7.80;;;3.23;;
13571;SDS011;6857;53.484;10.216;2024-02-21T09:55:23;7.37;;;3.87;;
13571;SDS011;6857;53.484;10.216;2024-02-21T09:57:52;5.50;;;3.80;;
13571;SDS011;6857;53.484;10.216;2024-02-21T10:00:19;7.20;;;4.10;;
13571;SDS011;6857;53.484;10.216;2024-02-21T10:02:47;7.60;;;4.53;;
13571;SDS011;6857;53.484;10.216;2024-02-21T10:05:14;7.90;;;4.40;;
13571;SDS011;6857;53.484;10.216;2024-02-21T10:07:40;9.57;;;6.20;;
13571;SDS011;6857;53.484;10.216;2024-02-21T10:10:06;11.53;;;7.50;;
13571;SDS011;6857;53.484;10.216;2024-02-21T10:12:32;11.47;;;7.53;;
13571;SDS011;6857;53.484;10.216;2024-02-21T10:15:05;13.40;;;7.83;;
13571;SDS011;6857;53.484;10.216;2024-02-21T10:17:34;14.33;;;8.43;;
13571;SDS011;6857;53.484;10.216;2024-02-21T10:20:10;14.30;;;9.87;;
13571;SDS011;6857;53.484;10.216;2024-02-21T10:22:37;18.73;;;10.23;;
13571;SDS011;6857;53.484;10.216;2024-02-21T10:25:11;15.83;;;9.23;;
13571;SDS011;6857;53.484;10.216;2024-02-21T10:27:37;16.83;;;10.20;;
13571;SDS011;6857;53.484;10.216;2024-02-21T10:30:07;17.27;;;11.03;;
13571;SDS011;6857;53.484;10.216;2024-02-21T10:32:48;17.27;;;10.47;;
13571;SDS011;6857;53.484;10.216;2024-02-21T10:35:30;23.87;;;12.33;;
13571;SDS011;6857;53.484;10.216;2024-02-21T10:37:56;22.83;;;12.67;;
13571;SDS011;6857;53.484;10.216;2024-02-21T10:40:23;24.93;;;13.43;;
13571;SDS011;6857;53.484;10.216;2024-02-21T10:42:51;27.90;;;15.03;;
13571;SDS011;6857;53.484;10.216;2024-02-21T10:45:27;27.40;;;14.17;;
13571;SDS011;6857;53.484;10.216;2024-02-21T10:48:08;27.87;;;14.50;;
13571;SDS011;6857;53.484;10.216;2024-02-21T10:50:36;32.20;;;15.90;;
13571;SDS011;6857;53.484;10.216;2024-02-21T10:58:44;29.90;;;15.33;;
13571;SDS011;6857;53.484;10.216;2024-02-21T11:01:10;29.97;;;16.10;;
13571;SDS011;6857;53.484;10.216;2024-02-21T11:03:39;31.13;;;16.07;;
13571;SDS011;6857;53.484;10.216;2024-02-21T11:06:13;29.60;;;14.97;;
13571;SDS011;6857;53.484;10.216;2024-02-21T11:08:40;30.53;;;15.80;;
13571;SDS011;6857;53.484;10.216;2024-02-21T11:11:05;29.00;;;13.50;;
13571;SDS011;6857;53.484;10.216;2024-02-21T11:13:31;29.03;;;14.20;;
13571;SDS011;6857;53.484;10.216;2024-02-21T11:16:10;25.30;;;13.57;;
13571;SDS011;6857;53.484;10.216;2024-02-21T11:18:37;21.30;;;13.07;;
13571;SDS011;6857;53.484;10.216;2024-02-21T11:21:03;19.13;;;11.73;;
13571;SDS011;6857;53.484;10.216;2024-02-21T11:23:30;26.50;;;12.60;;
13571;SDS011;6857;53.484;10.216;2024-02-21T11:26:08;22.67;;;11.77;;
13571;SDS011;6857;53.484;10.216;2024-02-21T11:28:34;23.63;;;12.43;;
13571;SDS011;6857;53.484;10.216;2024-02-21T11:31:21;18.60;;;11.33;;
13571;SDS011;6857;53.484;10.216;2024-02-21T11:33:47;20.70;;;12.37;;
13571;SDS011;6857;53.484;10.216;2024-02-21T11:36:23;19.83;;;11.50;;
13571;SDS011;6857;53.484;10.216;2024-02-21T11:38:52;20.47;;;11.40;;
13571;SDS011;6857;53.484;10.216;2024-02-21T11:41:18;17.90;;;11.33;;
13571;SDS011;6857;53.484;10.216;2024-02-21T11:43:45;18.77;;;9.73;;
13571;SDS011;6857;53.484;10.216;2024-02-21T11:46:11;22.13;;;10.50;;
13571;SDS011;6857;53.484;10.216;2024-02-21T11:48:39;17.83;;;9.60;;
13571;SDS011;6857;53.484;10.216;2024-02-21T11:51:06;14.70;;;8.60;;
13571;SDS011;6857;53.484;10.216;2024-02-21T11:53:31;16.37;;;9.67;;
13571;SDS011;6857;53.484;10.216;2024-02-21T11:55:58;17.30;;;9.27;;
13571;SDS011;6857;53.484;10.216;2024-02-21T11:58:24;16.10;;;9.03;;
13571;SDS011;6857;53.484;10.216;2024-02-21T12:00:50;16.77;;;10.17;;
13571;SDS011;6857;53.484;10.216;2024-02-21T12:03:16;16.80;;;9.07;;
13571;SDS011;6857;53.484;10.216;2024-02-21T12:05:41;15.40;;;8.63;;
13571;SDS011;6857;53.484;10.216;2024-02-21T12:08:07;16.27;;;9.27;;
13571;SDS011;6857;53.484;10.216;2024-02-21T12:10:33;17.53;;;9.20;;
13571;SDS011;6857;53.484;10.216;2024-02-21T12:13:07;23.40;;;9.70;;
13571;SDS011;6857;53.484;10.216;2024-02-21T12:15:33;14.77;;;9.03;;
13571;SDS011;6857;53.484;10.216;2024-02-21T12:17:59;15.00;;;8.93;;
13571;SDS011;6857;53.484;10.216;2024-02-21T12:20:25;15.80;;;9.30;;
13571;SDS011;6857;53.484;10.216;2024-02-21T12:22:51;13.57;;;8.83;;
13571;SDS011;6857;53.484;10.216;2024-02-21T12:25:21;15.63;;;9.23;;
13571;SDS011;6857;53.484;10.216;2024-02-21T12:27:48;18.37;;;9.97;;
13571;SDS011;6857;53.484;10.216;2024-02-21T12:30:14;15.83;;;9.97;;
13571;SDS011;6857;53.484;10.216;2024-02-21T12:32:40;19.27;;;9.73;;
13571;SDS011;6857;53.484;10.216;2024-02-21T12:35:06;14.17;;;10.63;;
13571;SDS011;6857;53.484;10.216;2024-02-21T12:37:32;19.57;;;11.00;;
13571;SDS011;6857;53.484;10.216;2024-02-21T12:39:58;16.57;;;10.47;;
13571;SDS011;6857;53.484;10.216;2024-02-21T12:42:24;22.27;;;10.80;;
13571;SDS011;6857;53.484;10.216;2024-02-21T12:44:50;18.60;;;10.00;;
13571;SDS011;6857;53.484;10.216;2024-02-21T12:47:17;19.93;;;11.27;;
13571;SDS011;6857;53.484;10.216;2024-02-21T12:49:44;25.23;;;12.50;;
13571;SDS011;6857;53.484;10.216;2024-02-21T12:52:10;19.53;;;10.87;;
13571;SDS011;6857;53.484;10.216;2024-02-21T12:54:36;20.63;;;12.10;;
13571;SDS011;6857;53.484;10.216;2024-02-21T12:57:01;22.13;;;11.50;;
13571;SDS011;6857;53.484;10.216;2024-02-21T12:59:28;21.47;;;12.60;;
13571;SDS011;6857;53.484;10.216;2024-02-21T13:01:54;18.93;;;12.17;;
13571;SDS011;6857;53.484;10.216;2024-02-21T13:04:19;21.97;;;13.27;;
13571;SDS011;6857;53.484;10.216;2024-02-21T13:06:47;25.27;;;12.93;;
13571;SDS011;6857;53.484;10.216;2024-02-21T13:09:13;19.57;;;12.67;;
13571;SDS011;6857;53.484;10.216;2024-02-21T13:11:39;21.00;;;12.40;;
13571;SDS011;6857;53.484;10.216;2024-02-21T13:14:06;18.70;;;13.07;;
13571;SDS011;6857;53.484;10.216;2024-02-21T13:16:32;26.33;;;13.47;;
13571;SDS011;6857;53.484;10.216;2024-02-21T13:19:04;21.97;;;12.40;;
13571;SDS011;6857;53.484;10.216;2024-02-21T13:21:33;19.53;;;12.33;;
13571;SDS011;6857;53.484;10.216;2024-02-21T13:23:59;25.33;;;13.40;;
13571;SDS011;6857;53.484;10.216;2024-02-21T13:26:25;18.53;;;12.47;;
13571;SDS011;6857;53.484;10.216;2024-02-21T13:28:50;20.07;;;13.03;;
13571;SDS011;6857;53.484;10.216;2024-02-21T13:31:16;21.87;;;12.67;;
13571;SDS011;6857;53.484;10.216;2024-02-21T13:33:42;22.10;;;13.57;;
13571;SDS011;6857;53.484;10.216;2024-02-21T13:36:09;18.00;;;12.53;;
13571;SDS011;6857;53.484;10.216;2024-02-21T13:38:35;22.47;;;12.53;;
13571;SDS011;6857;53.484;10.216;2024-02-21T13:41:01;18.50;;;12.50;;
13571;SDS011;6857;53.484;10.216;2024-02-21T13:43:26;17.57;;;11.93;;
13571;SDS011;6857;53.484;10.216;2024-02-21T13:45:59;18.53;;;12.23;;
13571;SDS011;6857;53.484;10.216;2024-02-21T13:48:26;18.37;;;11.83;;
13571;SDS011;6857;53.484;10.216;2024-02-21T13:51:01;21.53;;;12.30;;
13571;SDS011;6857;53.484;10.216;2024-02-21T13:53:29;19.97;;;11.93;;
13571;SDS011;6857;53.484;10.216;2024-02-21T13:55:55;23.33;;;12.73;;
13571;SDS011;6857;53.484;10.216;2024-02-21T13:58:20;22.20;;;12.43;;
13571;SDS011;6857;53.484;10.216;2024-02-21T14:00:47;22.60;;;13.20;;
13571;SDS011;6857;53.484;10.216;2024-02-21T14:03:12;25.10;;;13.03;;
13571;SDS011;6857;53.484;10.216;2024-02-21T14:05:38;25.67;;;16.07;;
13571;SDS011;6857;53.484;10.216;2024-02-21T14:08:06;17.27;;;12.60;;
13571;SDS011;6857;53.484;10.216;2024-02-21T14:10:32;19.63;;;11.77;;
13571;SDS011;6857;53.484;10.216;2024-02-21T14:12:58;17.53;;;11.67;;
13571;SDS011;6857;53.484;10.216;2024-02-21T14:15:24;18.07;;;11.60;;
13571;SDS011;6857;53.484;10.216;2024-02-21T14:17:50;15.53;;;11.27;;
13571;SDS011;6857;53.484;10.216;2024-02-21T14:20:15;20.10;;;13.07;;
13571;SDS011;6857;53.484;10.216;2024-02-21T14:22:41;21.60;;;11.90;;
13571;SDS011;6857;53.484;10.216;2024-02-21T14:25:06;18.03;;;11.97;;
13571;SDS011;6857;53.484;10.216;2024-02-21T14:27:32;12.67;;;9.53;;
13571;SDS011;6857;53.484;10.216;2024-02-21T14:29:58;14.57;;;9.37;;
13571;SDS011;6857;53.484;10.216;2024-02-21T14:32:24;13.67;;;9.77;;
13571;SDS011;6857;53.484;10.216;2024-02-21T14:34:49;15.03;;;9.40;;